createdAt,value
2018-09-25T06:05:49.239Z,4.07
2018-09-25T06:08:22.970Z,3.43
2018-09-25T06:10:56.499Z,3.87
2018-09-25T06:13:30.252Z,3.77
2018-09-25T06:16:03.749Z,4.20
2018-09-25T06:18:37.400Z,3.93
2018-09-25T06:21:11.293Z,4.20
2018-09-25T06:23:44.777Z,3.90
2018-09-25T06:26:18.374Z,4.37
2018-09-25T06:28:52.198Z,4.07
2018-09-25T06:31:25.886Z,4.00
2018-09-25T06:33:59.341Z,3.03
2018-09-25T06:36:32.916Z,3.70
2018-09-25T06:39:06.553Z,3.57
2018-09-25T06:41:40.128Z,3.60
2018-09-25T06:44:13.889Z,4.03
2018-09-25T06:46:47.563Z,3.50
2018-09-25T06:49:21.188Z,3.40
2018-09-25T06:51:54.828Z,3.27
2018-09-25T06:54:28.392Z,3.10
2018-09-25T06:57:01.936Z,3.40
2018-09-25T06:59:35.679Z,3.30
2018-09-25T07:02:09.176Z,3.10
2018-09-25T07:04:42.876Z,3.20
2018-09-25T07:07:16.489Z,3.33
2018-09-25T07:09:50.279Z,3.33
2018-09-25T07:12:23.795Z,4.23
2018-09-25T07:14:57.567Z,2.93
2018-09-25T07:17:31.328Z,3.47
2018-09-25T07:20:04.875Z,3.50
2018-09-25T07:22:38.472Z,5.23
2018-09-25T07:25:12.170Z,4.10
2018-09-25T07:27:45.742Z,3.47
2018-09-25T07:30:19.352Z,2.93
2018-09-25T07:32:52.948Z,2.87
2018-09-25T07:35:26.700Z,2.77
2018-09-25T07:38:00.345Z,2.60
2018-09-25T07:40:34.133Z,2.53
2018-09-25T07:43:07.569Z,2.80
2018-09-25T07:45:41.220Z,2.70
2018-09-25T07:48:15.045Z,2.93
2018-09-25T07:50:48.676Z,3.23
2018-09-25T07:53:22.183Z,2.90
2018-09-25T07:55:55.813Z,2.77
2018-09-25T07:58:29.509Z,2.70
2018-09-25T08:01:03.148Z,2.90
2018-09-25T08:03:36.820Z,3.17
2018-09-25T08:06:10.420Z,3.13
2018-09-25T08:08:43.996Z,3.07
2018-09-25T08:11:17.667Z,3.93
2018-09-25T08:13:51.327Z,3.13
2018-09-25T08:16:25.043Z,2.60
2018-09-25T08:18:58.685Z,3.47
2018-09-25T08:21:32.448Z,3.37
2018-09-25T08:24:05.968Z,4.70
2018-09-25T08:26:39.608Z,3.40
2018-09-25T08:29:13.227Z,2.77
2018-09-25T08:31:46.885Z,2.87
2018-09-25T08:34:20.581Z,3.10
2018-09-25T08:36:54.287Z,2.80
2018-09-25T08:39:28.037Z,3.40
2018-09-25T08:42:01.629Z,3.23
2018-09-25T08:44:35.351Z,2.83
2018-09-25T08:47:09.055Z,3.17
2018-09-25T08:49:42.499Z,2.70
2018-09-25T08:52:16.160Z,2.60
2018-09-25T08:54:49.788Z,2.73
2018-09-25T08:57:23.520Z,4.17
2018-09-25T08:59:57.205Z,2.70
2018-09-25T09:02:30.781Z,3.10
2018-09-25T09:05:04.400Z,2.50
2018-09-25T09:07:38.084Z,2.70
2018-09-25T09:10:12.287Z,2.50
2018-09-25T09:12:46.072Z,2.53
2018-09-25T09:15:19.792Z,3.33
2018-09-25T09:17:53.436Z,2.40
2018-09-25T09:20:27.072Z,3.17
2018-09-25T09:23:00.639Z,2.60
2018-09-25T09:25:34.159Z,2.90
2018-09-25T09:28:07.756Z,2.20
2018-09-25T09:30:41.392Z,2.80
2018-09-25T09:33:15.048Z,2.87
2018-09-25T09:35:48.602Z,2.20
2018-09-25T09:38:22.284Z,2.80
2018-09-25T09:40:56.050Z,2.57
2018-09-25T09:43:29.796Z,2.10
2018-09-25T09:46:03.418Z,2.10
2018-09-25T09:48:37.285Z,2.07
2018-09-25T09:51:11.112Z,2.30
2018-09-25T09:53:44.733Z,2.40
2018-09-25T09:56:18.359Z,2.67
2018-09-25T09:58:51.984Z,2.47
2018-09-25T10:01:25.543Z,2.30
2018-09-25T10:03:59.327Z,3.03
2018-09-25T10:06:33.077Z,2.27
2018-09-25T10:09:06.652Z,1.97
2018-09-25T10:11:40.222Z,2.20
2018-09-25T10:14:13.864Z,2.70
2018-09-25T10:16:47.535Z,2.03
2018-09-25T10:19:21.195Z,2.40
2018-09-25T10:21:54.768Z,2.73
2018-09-25T10:24:28.228Z,2.33
2018-09-25T10:27:01.856Z,1.93
2018-09-25T10:29:35.568Z,2.00
2018-09-25T10:32:09.307Z,1.93
2018-09-25T10:34:43.044Z,2.40
2018-09-25T10:37:16.764Z,2.07
2018-09-25T10:39:50.479Z,2.10
2018-09-25T10:42:24.108Z,1.80
2018-09-25T10:44:57.680Z,2.53
2018-09-25T10:47:31.492Z,1.83
2018-09-25T10:50:05.243Z,1.83
2018-09-25T10:52:38.793Z,1.70
2018-09-25T10:55:12.528Z,1.83
2018-09-25T10:57:46.071Z,2.07
2018-09-25T11:00:19.711Z,2.00
2018-09-25T11:02:53.439Z,1.90
2018-09-25T11:05:26.988Z,2.23
2018-09-25T11:08:00.585Z,2.20
2018-09-25T11:10:34.224Z,1.83
2018-09-25T11:13:07.796Z,1.83
2018-09-25T11:15:41.331Z,2.17
2018-09-25T11:18:14.949Z,1.70
2018-09-25T11:20:48.565Z,1.93
2018-09-25T11:23:22.156Z,2.30
2018-09-25T11:25:55.821Z,1.70
2018-09-25T11:28:29.496Z,1.80
2018-09-25T11:31:03.137Z,1.70
2018-09-25T11:33:36.699Z,1.67
2018-09-25T11:36:10.335Z,2.13
2018-09-25T11:38:44.028Z,1.67
2018-09-25T11:41:17.829Z,1.87
2018-09-25T11:43:51.336Z,1.67
2018-09-25T11:46:25.004Z,1.90
2018-09-25T11:48:58.578Z,1.60
2018-09-25T11:51:32.237Z,1.60
2018-09-25T11:54:05.988Z,1.60
2018-09-25T11:56:39.616Z,1.80
2018-09-25T11:59:13.271Z,1.40
2018-09-25T12:01:46.845Z,1.83
2018-09-25T12:04:20.464Z,2.13
2018-09-25T12:06:54.161Z,1.50
2018-09-25T12:09:27.853Z,1.50
2018-09-25T12:12:01.416Z,2.00
2018-09-25T12:14:34.984Z,1.77
2018-09-25T12:17:08.633Z,1.60
2018-09-25T12:19:42.251Z,1.90
2018-09-25T12:22:15.963Z,2.00
2018-09-25T12:24:49.660Z,2.00
2018-09-25T12:27:23.435Z,1.97
2018-09-25T12:29:57.087Z,1.70
2018-09-25T12:32:30.859Z,1.57
2018-09-25T12:35:04.572Z,2.33
2018-09-25T12:37:38.232Z,2.00
2018-09-25T12:40:11.980Z,2.20
2018-09-25T12:42:45.584Z,2.00
2018-09-25T12:45:19.288Z,2.07
2018-09-25T12:47:52.868Z,1.40
2018-09-25T12:50:26.448Z,1.60
2018-09-25T12:53:00.077Z,1.60
2018-09-25T12:55:33.675Z,1.80
2018-09-25T12:58:07.435Z,1.60
2018-09-25T13:00:40.950Z,2.07
2018-09-25T13:03:14.591Z,1.87
2018-09-25T13:05:48.200Z,2.70
2018-09-25T13:08:21.823Z,1.70
2018-09-25T13:10:55.572Z,1.87
2018-09-25T13:13:29.288Z,2.10
2018-09-25T13:16:03.059Z,2.10
2018-09-25T13:18:36.670Z,2.17
2018-09-25T13:21:10.264Z,2.23
2018-09-25T13:23:43.954Z,2.33
2018-09-25T13:26:17.624Z,2.17
2018-09-25T13:28:51.383Z,2.10
2018-09-25T13:31:24.830Z,2.10
2018-09-25T13:33:58.512Z,2.13
2018-09-25T13:36:32.160Z,2.10
2018-09-25T13:39:05.824Z,1.87
2018-09-25T13:41:39.495Z,2.00
2018-09-25T13:44:13.231Z,1.60
2018-09-25T13:46:46.804Z,1.80
2018-09-25T13:49:20.491Z,2.00
2018-09-25T13:51:54.263Z,1.73
2018-09-25T13:54:28.092Z,2.90
2018-09-25T13:57:01.723Z,1.60
2018-09-25T13:59:35.244Z,1.83
2018-09-25T14:02:08.828Z,2.07
2018-09-25T14:04:42.512Z,1.80
2018-09-25T14:07:16.137Z,2.47
2018-09-25T14:09:49.719Z,2.17
2018-09-25T14:12:23.316Z,2.03
2018-09-25T14:14:57.067Z,2.23
2018-09-25T14:17:30.781Z,1.90
2018-09-25T14:20:04.484Z,1.70
2018-09-25T14:22:38.180Z,1.87
2018-09-25T14:25:11.898Z,1.90
2018-09-25T14:27:45.583Z,1.87
2018-09-25T14:30:19.175Z,1.97
2018-09-25T14:32:52.725Z,1.80
2018-09-25T14:35:26.339Z,2.10
2018-09-25T14:37:59.996Z,2.00
2018-09-25T14:40:33.560Z,1.77
2018-09-25T14:43:07.192Z,1.87
2018-09-25T14:45:40.719Z,2.10
2018-09-25T14:48:14.430Z,1.77
2018-09-25T14:50:48.000Z,2.50
2018-09-25T14:53:21.559Z,1.50
2018-09-25T14:55:55.160Z,2.17
2018-09-25T14:58:28.832Z,1.70
2018-09-25T15:01:02.448Z,1.70
2018-09-25T15:03:36.120Z,1.97
2018-09-25T15:06:09.915Z,1.90
2018-09-25T15:08:43.605Z,1.83
2018-09-25T15:11:17.368Z,1.70
2018-09-25T15:13:50.911Z,1.80
2018-09-25T15:16:24.635Z,1.53
2018-09-25T15:18:58.288Z,1.73
2018-09-25T15:21:32.027Z,1.87
2018-09-25T15:24:05.526Z,1.73
2018-09-25T15:26:39.226Z,1.70
2018-09-25T15:29:12.860Z,1.60
2018-09-25T15:31:46.314Z,1.87
2018-09-25T15:34:20.037Z,1.60
2018-09-25T15:36:53.648Z,1.40
2018-09-25T15:39:27.321Z,1.60
2018-09-25T15:42:01.194Z,1.50
2018-09-25T15:44:34.804Z,2.03
2018-09-25T15:47:08.621Z,1.60
2018-09-25T15:49:42.245Z,1.40
2018-09-25T15:52:15.824Z,1.60
2018-09-25T15:54:49.492Z,1.90
2018-09-25T15:57:23.164Z,1.70
2018-09-25T15:59:56.900Z,2.00
2018-09-25T16:02:30.600Z,1.50
2018-09-25T16:05:04.155Z,1.60
2018-09-25T16:07:37.830Z,1.53
2018-09-25T16:10:11.475Z,1.80
2018-09-25T16:12:45.204Z,1.90
2018-09-25T16:15:19.023Z,1.90
2018-09-25T16:17:52.764Z,1.80
2018-09-25T16:20:26.507Z,1.90
2018-09-25T16:23:00.120Z,1.70
2018-09-25T16:25:33.797Z,1.77
2018-09-25T16:28:07.401Z,1.50
2018-09-25T16:30:41.050Z,2.63
2018-09-25T16:33:14.664Z,2.20
2018-09-25T16:35:55.156Z,2.10
2018-09-25T16:38:28.793Z,2.23
2018-09-25T16:41:02.533Z,2.00
2018-09-25T16:43:36.245Z,1.70
2018-09-25T16:46:09.811Z,1.53
2018-09-25T16:48:43.409Z,1.80
2018-09-25T16:51:17.105Z,2.23
2018-09-25T16:53:50.812Z,1.33
2018-09-25T16:56:24.513Z,1.77
2018-09-25T16:58:58.216Z,1.70
2018-09-25T17:01:31.843Z,1.70
2018-09-25T17:04:05.504Z,1.47
2018-09-25T17:06:39.048Z,1.80
2018-09-25T17:09:12.805Z,1.40
2018-09-25T17:11:46.380Z,1.80
2018-09-25T17:14:20.096Z,2.63
2018-09-25T17:16:53.612Z,1.67
2018-09-25T17:19:27.295Z,1.90
2018-09-25T17:22:00.896Z,1.43
2018-09-25T17:24:34.611Z,1.97
2018-09-25T17:27:08.175Z,1.40
2018-09-25T17:29:41.963Z,1.80
2018-09-25T17:32:15.655Z,1.47
2018-09-25T17:34:49.445Z,1.70
2018-09-25T17:37:23.248Z,1.67
2018-09-25T17:39:56.848Z,1.57
2018-09-25T17:42:30.381Z,2.13
2018-09-25T17:45:04.037Z,1.67
2018-09-25T17:47:37.710Z,1.60
2018-09-25T17:50:11.419Z,1.93
2018-09-25T17:52:45.068Z,1.80
2018-09-25T17:55:18.748Z,2.03
2018-09-25T17:57:52.315Z,2.00
2018-09-25T18:00:26.067Z,2.20
2018-09-25T18:02:59.584Z,1.93
2018-09-25T18:05:33.259Z,2.10
2018-09-25T18:08:06.892Z,1.97
2018-09-25T18:10:40.576Z,3.10
2018-09-25T18:13:14.195Z,2.53
2018-09-25T18:15:47.757Z,3.03
2018-09-25T18:18:21.331Z,8.50
2018-09-25T18:20:54.944Z,6.80
2018-09-25T18:23:28.565Z,5.47
2018-09-25T18:26:02.322Z,5.07
2018-09-25T18:28:35.903Z,5.17
2018-09-25T18:31:09.472Z,3.53
2018-09-25T18:33:42.947Z,3.60
2018-09-25T18:36:16.581Z,4.33
2018-09-25T18:38:50.176Z,5.33
2018-09-25T18:41:23.913Z,5.73
2018-09-25T18:43:57.465Z,3.90
2018-09-25T18:46:31.118Z,3.40
2018-09-25T18:49:04.663Z,2.70
2018-09-25T18:51:38.384Z,2.57
2018-09-25T18:54:12.152Z,2.23
2018-09-25T18:56:45.748Z,1.80
2018-09-25T18:59:19.384Z,2.10
2018-09-25T19:01:53.094Z,2.33
2018-09-25T19:04:33.812Z,1.80
2018-09-25T19:07:07.602Z,1.90
2018-09-25T19:09:41.324Z,2.47
2018-09-25T19:12:14.936Z,1.90
2018-09-25T19:14:48.503Z,2.70
2018-09-25T19:17:22.220Z,2.37
2018-09-25T19:19:55.766Z,2.00
2018-09-25T19:22:29.344Z,2.40
2018-09-25T19:25:03.097Z,2.60
2018-09-25T19:27:36.881Z,2.00
2018-09-25T19:30:10.605Z,2.10
2018-09-25T19:32:44.476Z,2.50
2018-09-25T19:35:18.108Z,2.27
2018-09-25T19:37:51.671Z,2.20
2018-09-25T19:40:25.304Z,3.37
2018-09-25T19:42:58.931Z,2.53
2018-09-25T19:45:32.607Z,2.77
2018-09-25T19:48:06.360Z,2.67
2018-09-25T19:50:39.836Z,2.50
2018-09-25T19:53:13.545Z,2.90
2018-09-25T19:55:47.244Z,2.73
2018-09-25T19:58:20.775Z,3.03
2018-09-25T20:00:54.297Z,2.40
2018-09-25T20:03:28.485Z,3.10
2018-09-25T20:06:02.260Z,3.97
2018-09-25T20:08:35.889Z,4.30
2018-09-25T20:11:09.436Z,4.60
2018-09-25T20:13:43.203Z,4.50
2018-09-25T20:16:16.945Z,3.47
2018-09-25T20:18:50.675Z,3.93
2018-09-25T20:21:24.420Z,3.60
2018-09-25T20:23:58.192Z,3.70
2018-09-25T20:26:31.863Z,3.27
2018-09-25T20:29:05.540Z,3.00
2018-09-25T20:31:39.295Z,3.60
2018-09-25T20:34:13.320Z,4.27
2018-09-25T20:36:46.972Z,3.83
2018-09-25T20:39:20.528Z,4.20
2018-09-25T20:41:54.176Z,3.77
2018-09-25T20:44:27.764Z,3.70
